sensor_id;sensor_type;location;lat;lon;timestamp;pressure;altitude;pressure_sealevel;temperature;humidity
80934;BME280;70392;51.144;17.050;2023-07-20T03:24:33;99768.80;;;33.70;22.35
80934;BME280;70392;51.144;17.050;2023-07-20T03:26:46;99763.01;;;17.08;83.13
80934;BME280;70392;51.144;17.050;2023-07-20T03:29:02;99766.35;;;16.72;84.74
80934;BME280;70392;51.144;17.050;2023-07-20T03:31:18;99762.24;;;16.54;85.82
80934;BME280;70392;51.144;17.050;2023-07-20T03:33:37;99763.99;;;16.36;86.57
80934;BME280;70392;51.144;17.050;2023-07-20T03:35:54;99762.61;;;16.31;87.19
80934;BME280;70392;51.144;17.050;2023-07-20T03:38:12;99763.91;;;16.29;87.53
80934;BME280;70392;51.144;17.050;2023-07-20T03:40:28;99764.56;;;16.31;87.40
80934;BME280;70392;51.144;17.050;2023-07-20T03:42:44;99764.37;;;16.25;87.41
80934;BME280;70392;51.144;17.050;2023-07-20T03:45:11;99768.16;;;16.22;87.68
80934;BME280;70392;51.144;17.050;2023-07-20T03:47:28;99773.66;;;16.20;87.65
80934;BME280;70392;51.144;17.050;2023-07-20T03:49:48;99769.55;;;16.18;87.75
80934;BME280;70392;51.144;17.050;2023-07-20T03:52:04;99754.29;;;16.24;87.74
80934;BME280;70392;51.144;17.050;2023-07-20T03:54:23;99766.23;;;16.26;87.63
80934;BME280;70392;51.144;17.050;2023-07-20T03:56:39;99766.81;;;16.30;87.28
80934;BME280;70392;51.144;17.050;2023-07-20T03:58:56;99771.20;;;16.33;87.13
80934;BME280;70392;51.144;17.050;2023-07-20T04:01:13;99760.77;;;16.36;87.17
80934;BME280;70392;51.144;17.050;2023-07-20T04:03:29;99758.09;;;16.30;86.69
80934;BME280;70392;51.144;17.050;2023-07-20T04:05:46;99753.67;;;16.44;87.05
80934;BME280;70392;51.144;17.050;2023-07-20T04:08:04;99751.38;;;16.45;86.46
80934;BME280;70392;51.144;17.050;2023-07-20T04:10:20;99759.50;;;16.64;86.32
80934;BME280;70392;51.144;17.050;2023-07-20T04:12:36;99762.72;;;16.75;86.17
80934;BME280;70392;51.144;17.050;2023-07-20T04:14:56;99775.91;;;16.84;85.57
80934;BME280;70392;51.144;17.050;2023-07-20T04:17:13;99772.22;;;17.01;85.38
80934;BME280;70392;51.144;17.050;2023-07-20T04:19:29;99780.52;;;17.17;85.38
80934;BME280;70392;51.144;17.050;2023-07-20T04:21:46;99777.75;;;17.31;85.02
80934;BME280;70392;51.144;17.050;2023-07-20T04:24:02;99779.12;;;17.38;84.69
80934;BME280;70392;51.144;17.050;2023-07-20T04:26:18;99784.81;;;17.38;84.39
80934;BME280;70392;51.144;17.050;2023-07-20T04:28:34;99788.69;;;17.41;84.07
80934;BME280;70392;51.144;17.050;2023-07-20T04:30:52;99790.40;;;17.43;84.18
80934;BME280;70392;51.144;17.050;2023-07-20T04:33:11;99783.56;;;17.43;83.96
80934;BME280;70392;51.144;17.050;2023-07-20T04:35:46;99793.13;;;17.48;84.05
80934;BME280;70392;51.144;17.050;2023-07-20T04:38:02;99795.20;;;17.58;83.82
80934;BME280;70392;51.144;17.050;2023-07-20T04:40:18;99790.67;;;17.53;83.78
80934;BME280;70392;51.144;17.050;2023-07-20T04:43:08;99800.09;;;17.67;83.75
80934;BME280;70392;51.144;17.050;2023-07-20T04:45:25;99806.49;;;17.87;82.88
80934;BME280;70392;51.144;17.050;2023-07-20T04:47:41;99802.33;;;17.94;83.26
80934;BME280;70392;51.144;17.050;2023-07-20T04:49:57;99811.11;;;17.80;83.03
80934;BME280;70392;51.144;17.050;2023-07-20T04:52:13;99806.09;;;17.85;83.07
80934;BME280;70392;51.144;17.050;2023-07-20T04:54:40;99811.57;;;17.90;83.15
80934;BME280;70392;51.144;17.050;2023-07-20T04:56:57;99811.09;;;17.97;83.12
80934;BME280;70392;51.144;17.050;2023-07-20T04:59:13;99808.08;;;18.05;83.04
80934;BME280;70392;51.144;17.050;2023-07-20T05:01:37;99808.31;;;18.14;82.92
80934;BME280;70392;51.144;17.050;2023-07-20T05:03:54;99801.38;;;18.26;82.44
80934;BME280;70392;51.144;17.050;2023-07-20T05:06:16;99819.55;;;18.29;81.62
80934;BME280;70392;51.144;17.050;2023-07-20T05:08:33;99827.60;;;18.20;81.92
80934;BME280;70392;51.144;17.050;2023-07-20T05:10:51;99823.88;;;18.23;81.35
80934;BME280;70392;51.144;17.050;2023-07-20T05:13:07;99829.32;;;18.24;82.22
80934;BME280;70392;51.144;17.050;2023-07-20T05:15:24;99842.54;;;18.18;82.07
80934;BME280;70392;51.144;17.050;2023-07-20T05:17:42;99840.32;;;18.20;82.19
80934;BME280;70392;51.144;17.050;2023-07-20T05:20:07;99839.87;;;18.31;82.60
80934;BME280;70392;51.144;17.050;2023-07-20T05:22:25;99841.57;;;18.28;81.52
80934;BME280;70392;51.144;17.050;2023-07-20T05:24:44;99851.60;;;18.23;82.34
80934;BME280;70392;51.144;17.050;2023-07-20T05:27:00;99851.98;;;18.21;82.28
80934;BME280;70392;51.144;17.050;2023-07-20T05:29:17;99857.41;;;18.19;82.39
80934;BME280;70392;51.144;17.050;2023-07-20T05:31:33;99857.93;;;18.20;82.65
80934;BME280;70392;51.144;17.050;2023-07-20T05:33:50;99858.02;;;18.18;82.62
80934;BME280;70392;51.144;17.050;2023-07-20T05:36:12;99870.30;;;18.11;82.65
80934;BME280;70392;51.144;17.050;2023-07-20T05:38:28;99865.80;;;17.92;82.72
80934;BME280;70392;51.144;17.050;2023-07-20T05:40:47;99858.40;;;17.96;83.25
80934;BME280;70392;51.144;17.050;2023-07-20T05:43:07;99858.61;;;18.03;83.45
80934;BME280;70392;51.144;17.050;2023-07-20T05:45:23;99861.39;;;18.06;83.43
80934;BME280;70392;51.144;17.050;2023-07-20T05:48:19;99859.47;;;18.10;82.86
80934;BME280;70392;51.144;17.050;2023-07-20T05:50:36;99865.49;;;18.37;81.56
80934;BME280;70392;51.144;17.050;2023-07-20T05:52:58;99860.78;;;18.27;81.88
80934;BME280;70392;51.144;17.050;2023-07-20T05:55:34;99859.20;;;18.29;82.37
80934;BME280;70392;51.144;17.050;2023-07-20T05:57:51;99851.24;;;18.29;82.60
80934;BME280;70392;51.144;17.050;2023-07-20T06:00:09;99851.48;;;18.24;82.54
80934;BME280;70392;51.144;17.050;2023-07-20T06:02:27;99854.71;;;18.32;82.71
80934;BME280;70392;51.144;17.050;2023-07-20T06:05:04;99847.48;;;18.40;82.05
80934;BME280;70392;51.144;17.050;2023-07-20T06:07:20;99854.82;;;18.48;81.86
80934;BME280;70392;51.144;17.050;2023-07-20T06:10:11;99858.98;;;18.48;80.89
80934;BME280;70392;51.144;17.050;2023-07-20T06:12:28;99863.09;;;18.67;79.66
80934;BME280;70392;51.144;17.050;2023-07-20T06:15:24;99866.76;;;18.60;79.91
80934;BME280;70392;51.144;17.050;2023-07-20T06:17:41;99867.11;;;18.96;79.17
80934;BME280;70392;51.144;17.050;2023-07-20T06:20:32;99868.45;;;19.01;78.73
80934;BME280;70392;51.144;17.050;2023-07-20T06:22:49;99866.34;;;19.40;78.36
80934;BME280;70392;51.144;17.050;2023-07-20T06:25:06;99868.66;;;19.45;77.98
80934;BME280;70392;51.144;17.050;2023-07-20T06:27:24;99874.73;;;19.44;77.19
80934;BME280;70392;51.144;17.050;2023-07-20T06:29:42;99879.47;;;19.34;77.71
80934;BME280;70392;51.144;17.050;2023-07-20T06:32:33;99891.50;;;19.23;78.13
80934;BME280;70392;51.144;17.050;2023-07-20T06:34:52;99885.90;;;19.43;77.53
80934;BME280;70392;51.144;17.050;2023-07-20T06:37:15;99880.01;;;19.42;77.21
80934;BME280;70392;51.144;17.050;2023-07-20T06:39:32;99889.23;;;19.46;78.12
80934;BME280;70392;51.144;17.050;2023-07-20T06:41:48;99889.69;;;19.57;77.92
80934;BME280;70392;51.144;17.050;2023-07-20T06:44:05;99893.79;;;19.62;77.29
80934;BME280;70392;51.144;17.050;2023-07-20T06:46:31;99893.57;;;19.65;77.32
80934;BME280;70392;51.144;17.050;2023-07-20T06:48:47;99893.15;;;19.67;77.54
80934;BME280;70392;51.144;17.050;2023-07-20T06:51:03;99889.19;;;19.75;77.76
80934;BME280;70392;51.144;17.050;2023-07-20T06:53:21;99892.81;;;19.85;75.61
80934;BME280;70392;51.144;17.050;2023-07-20T06:55:42;99892.95;;;19.87;76.12
80934;BME280;70392;51.144;17.050;2023-07-20T06:57:59;99897.07;;;19.93;75.11
80934;BME280;70392;51.144;17.050;2023-07-20T07:00:16;99907.05;;;19.94;74.83
80934;BME280;70392;51.144;17.050;2023-07-20T07:02:34;99906.00;;;20.01;75.38
80934;BME280;70392;51.144;17.050;2023-07-20T07:04:50;99902.00;;;20.02;74.36
80934;BME280;70392;51.144;17.050;2023-07-20T07:07:06;99909.69;;;19.82;75.69
80934;BME280;70392;51.144;17.050;2023-07-20T07:09:27;99902.09;;;19.77;74.84
80934;BME280;70392;51.144;17.050;2023-07-20T07:11:44;99904.23;;;19.85;75.53
80934;BME280;70392;51.144;17.050;2023-07-20T07:14:03;99899.45;;;19.92;75.47
80934;BME280;70392;51.144;17.050;2023-07-20T07:16:21;99903.20;;;20.01;76.66
80934;BME280;70392;51.144;17.050;2023-07-20T07:18:40;99904.79;;;20.19;75.12
80934;BME280;70392;51.144;17.050;2023-07-20T07:20:57;99900.80;;;20.24;74.23
80934;BME280;70392;51.144;17.050;2023-07-20T07:23:13;99909.36;;;20.37;74.40
80934;BME280;70392;51.144;17.050;2023-07-20T07:25:37;99906.70;;;20.54;73.90
80934;BME280;70392;51.144;17.050;2023-07-20T07:27:56;99912.56;;;20.43;72.80
80934;BME280;70392;51.144;17.050;2023-07-20T07:30:13;99918.01;;;20.41;72.97
80934;BME280;70392;51.144;17.050;2023-07-20T07:32:29;99917.83;;;20.12;72.88
80934;BME280;70392;51.144;17.050;2023-07-20T07:34:47;99912.78;;;20.03;73.30
80934;BME280;70392;51.144;17.050;2023-07-20T07:37:17;99906.52;;;20.04;73.31
80934;BME280;70392;51.144;17.050;2023-07-20T07:39:36;99909.55;;;19.88;73.79
80934;BME280;70392;51.144;17.050;2023-07-20T07:41:53;99905.17;;;19.83;72.99
80934;BME280;70392;51.144;17.050;2023-07-20T07:44:14;99913.57;;;19.98;74.14
80934;BME280;70392;51.144;17.050;2023-07-20T07:46:30;99909.41;;;19.92;72.23
80934;BME280;70392;51.144;17.050;2023-07-20T07:48:47;99930.09;;;20.04;73.26
80934;BME280;70392;51.144;17.050;2023-07-20T07:51:06;99924.62;;;19.99;72.63
80934;BME280;70392;51.144;17.050;2023-07-20T07:53:22;99923.96;;;20.17;72.36
80934;BME280;70392;51.144;17.050;2023-07-20T07:55:42;99910.01;;;20.19;72.27
80934;BME280;70392;51.144;17.050;2023-07-20T07:57:58;99916.52;;;20.19;72.97
80934;BME280;70392;51.144;17.050;2023-07-20T08:00:19;99919.57;;;20.18;72.64
80934;BME280;70392;51.144;17.050;2023-07-20T08:02:38;99920.47;;;19.93;71.74
80934;BME280;70392;51.144;17.050;2023-07-20T08:04:54;99915.16;;;19.91;73.10
80934;BME280;70392;51.144;17.050;2023-07-20T08:07:10;99915.69;;;19.89;73.68
80934;BME280;70392;51.144;17.050;2023-07-20T08:09:26;99917.26;;;19.82;73.54
80934;BME280;70392;51.144;17.050;2023-07-20T08:11:43;99922.42;;;19.75;73.39
80934;BME280;70392;51.144;17.050;2023-07-20T08:14:05;99917.26;;;19.83;73.49
80934;BME280;70392;51.144;17.050;2023-07-20T08:16:24;99927.20;;;19.73;73.19
80934;BME280;70392;51.144;17.050;2023-07-20T08:18:40;99925.37;;;19.88;73.52
80934;BME280;70392;51.144;17.050;2023-07-20T08:20:56;99920.89;;;19.98;71.91
80934;BME280;70392;51.144;17.050;2023-07-20T08:23:13;99925.29;;;20.15;72.24
80934;BME280;70392;51.144;17.050;2023-07-20T08:25:43;99922.41;;;20.40;72.54
80934;BME280;70392;51.144;17.050;2023-07-20T08:28:01;99913.60;;;20.42;69.47
80934;BME280;70392;51.144;17.050;2023-07-20T08:30:23;99910.55;;;20.53;69.62
80934;BME280;70392;51.144;17.050;2023-07-20T08:32:39;99918.40;;;20.65;69.13
80934;BME280;70392;51.144;17.050;2023-07-20T08:35:08;99923.40;;;21.00;69.52
80934;BME280;70392;51.144;17.050;2023-07-20T08:37:26;99927.95;;;20.93;67.18
80934;BME280;70392;51.144;17.050;2023-07-20T08:39:44;99920.58;;;21.20;66.10
80934;BME280;70392;51.144;17.050;2023-07-20T08:42:04;99920.17;;;21.22;64.09
80934;BME280;70392;51.144;17.050;2023-07-20T08:44:28;99927.33;;;21.32;64.80
80934;BME280;70392;51.144;17.050;2023-07-20T08:46:45;99918.85;;;21.19;65.90
80934;BME280;70392;51.144;17.050;2023-07-20T08:49:06;99926.42;;;21.24;66.03
80934;BME280;70392;51.144;17.050;2023-07-20T08:51:23;99931.52;;;21.12;66.43
80934;BME280;70392;51.144;17.050;2023-07-20T08:53:44;99936.34;;;20.81;65.98
80934;BME280;70392;51.144;17.050;2023-07-20T08:56:02;99941.56;;;20.78;66.42
80934;BME280;70392;51.144;17.050;2023-07-20T08:58:20;99934.59;;;20.98;65.39
80934;BME280;70392;51.144;17.050;2023-07-20T09:00:59;99922.98;;;21.18;64.09
80934;BME280;70392;51.144;17.050;2023-07-20T09:02:02;99930.29;;;21.55;64.17
80934;BME280;70392;51.144;17.050;2023-07-20T09:04:25;99921.78;;;21.78;65.37
80934;BME280;70392;51.144;17.050;2023-07-20T09:06:44;99929.31;;;21.69;61.83
80934;BME280;70392;51.144;17.050;2023-07-20T09:09:04;99927.91;;;21.07;63.59
80934;BME280;70392;51.144;17.050;2023-07-20T09:11:23;99926.38;;;20.88;65.49
80934;BME280;70392;51.144;17.050;2023-07-20T09:13:40;99925.18;;;20.81;66.46
80934;BME280;70392;51.144;17.050;2023-07-20T09:16:03;99935.28;;;20.98;67.60
80934;BME280;70392;51.144;17.050;2023-07-20T09:18:38;99929.92;;;20.95;65.78
80934;BME280;70392;51.144;17.050;2023-07-20T09:21:02;99942.03;;;21.10;67.11
80934;BME280;70392;51.144;17.050;2023-07-20T09:23:19;99935.38;;;21.01;65.47
80934;BME280;70392;51.144;17.050;2023-07-20T09:25:37;99934.17;;;21.07;65.50
80934;BME280;70392;51.144;17.050;2023-07-20T09:27:54;99927.52;;;21.07;64.84
80934;BME280;70392;51.144;17.050;2023-07-20T09:30:14;99930.01;;;21.22;64.81
80934;BME280;70392;51.144;17.050;2023-07-20T09:32:45;99929.42;;;21.43;64.33
80934;BME280;70392;51.144;17.050;2023-07-20T09:35:19;99925.30;;;21.53;62.21
80934;BME280;70392;51.144;17.050;2023-07-20T09:37:36;99924.97;;;21.58;63.09
80934;BME280;70392;51.144;17.050;2023-07-20T09:40:43;99925.15;;;21.95;61.86
80934;BME280;70392;51.144;17.050;2023-07-20T09:43:00;99930.76;;;22.21;60.71
80934;BME280;70392;51.144;17.050;2023-07-20T09:45:20;99929.59;;;21.88;60.00
80934;BME280;70392;51.144;17.050;2023-07-20T09:47:41;99925.73;;;21.87;61.35
80934;BME280;70392;51.144;17.050;2023-07-20T09:50:03;99923.98;;;22.10;57.75
80934;BME280;70392;51.144;17.050;2023-07-20T09:52:22;99931.79;;;22.39;58.43
80934;BME280;70392;51.144;17.050;2023-07-20T09:54:40;99922.23;;;22.38;57.66
80934;BME280;70392;51.144;17.050;2023-07-20T09:57:42;99923.99;;;22.45;57.61
80934;BME280;70392;51.144;17.050;2023-07-20T10:00:00;99928.67;;;22.92;57.12
80934;BME280;70392;51.144;17.050;2023-07-20T10:02:27;99921.95;;;22.95;56.31
80934;BME280;70392;51.144;17.050;2023-07-20T10:04:51;99909.71;;;23.12;60.42
80934;BME280;70392;51.144;17.050;2023-07-20T10:07:11;99901.13;;;23.53;59.49
80934;BME280;70392;51.144;17.050;2023-07-20T10:09:30;99907.84;;;23.81;55.32
80934;BME280;70392;51.144;17.050;2023-07-20T10:11:50;99903.30;;;23.77;52.61
80934;BME280;70392;51.144;17.050;2023-07-20T10:14:20;99917.73;;;23.21;49.81
80934;BME280;70392;51.144;17.050;2023-07-20T10:16:39;99901.63;;;23.41;52.95
80934;BME280;70392;51.144;17.050;2023-07-20T10:21:29;99902.22;;;24.01;53.05
80934;BME280;70392;51.144;17.050;2023-07-20T10:23:50;99898.40;;;24.35;52.27
80934;BME280;70392;51.144;17.050;2023-07-20T10:26:10;99891.58;;;24.33;50.79
80934;BME280;70392;51.144;17.050;2023-07-20T10:29:02;99893.45;;;24.10;49.77
80934;BME280;70392;51.144;17.050;2023-07-20T10:31:24;99897.14;;;24.27;51.75
80934;BME280;70392;51.144;17.050;2023-07-20T10:33:43;99901.99;;;23.94;49.64
80934;BME280;70392;51.144;17.050;2023-07-20T10:36:02;99902.44;;;24.64;48.28
80934;BME280;70392;51.144;17.050;2023-07-20T10:38:41;99903.49;;;25.48;47.55
80934;BME280;70392;51.144;17.050;2023-07-20T10:40:57;99900.71;;;25.35;49.22
80934;BME280;70392;51.144;17.050;2023-07-20T10:43:19;99893.57;;;24.66;48.67
80934;BME280;70392;51.144;17.050;2023-07-20T10:45:41;99903.78;;;25.35;47.20
80934;BME280;70392;51.144;17.050;2023-07-20T10:48:02;99896.80;;;26.64;48.37
80934;BME280;70392;51.144;17.050;2023-07-20T10:50:22;99881.96;;;27.31;43.14
80934;BME280;70392;51.144;17.050;2023-07-20T10:52:40;99898.26;;;27.89;42.57
80934;BME280;70392;51.144;17.050;2023-07-20T10:55:19;99895.22;;;27.87;47.98
80934;BME280;70392;51.144;17.050;2023-07-20T10:58:10;99889.63;;;27.69;42.06
80934;BME280;70392;51.144;17.050;2023-07-20T11:00:30;99878.56;;;26.97;40.44
80934;BME280;70392;51.144;17.050;2023-07-20T11:02:49;99881.48;;;27.66;42.39
80934;BME280;70392;51.144;17.050;2023-07-20T11:05:06;99896.13;;;27.47;42.83
80934;BME280;70392;51.144;17.050;2023-07-20T11:09:48;99876.02;;;27.24;43.43
80934;BME280;70392;51.144;17.050;2023-07-20T11:12:10;99878.30;;;27.13;40.15
80934;BME280;70392;51.144;17.050;2023-07-20T11:14:28;99870.35;;;27.52;38.66
80934;BME280;70392;51.144;17.050;2023-07-20T11:16:50;99870.66;;;27.47;40.29
80934;BME280;70392;51.144;17.050;2023-07-20T11:19:28;99869.38;;;27.32;40.19
80934;BME280;70392;51.144;17.050;2023-07-20T11:22:10;99882.13;;;25.74;41.54
80934;BME280;70392;51.144;17.050;2023-07-20T11:24:26;99904.95;;;24.15;50.80
80934;BME280;70392;51.144;17.050;2023-07-20T11:26:51;99913.48;;;22.81;57.05
80934;BME280;70392;51.144;17.050;2023-07-20T11:29:08;99925.48;;;21.92;59.55
80934;BME280;70392;51.144;17.050;2023-07-20T11:31:24;99930.91;;;21.38;63.10
80934;BME280;70392;51.144;17.050;2023-07-20T11:33:49;99926.49;;;20.91;68.38
80934;BME280;70392;51.144;17.050;2023-07-20T11:36:08;99917.09;;;20.64;72.16
80934;BME280;70392;51.144;17.050;2023-07-20T11:38:25;99910.70;;;20.52;73.53
80934;BME280;70392;51.144;17.050;2023-07-20T11:40:45;99907.23;;;20.47;74.17
80934;BME280;70392;51.144;17.050;2023-07-20T11:43:02;99909.22;;;20.46;75.29
80934;BME280;70392;51.144;17.050;2023-07-20T11:45:19;99914.41;;;20.43;74.32
80934;BME280;70392;51.144;17.050;2023-07-20T11:47:42;99913.20;;;20.51;74.80
80934;BME280;70392;51.144;17.050;2023-07-20T11:50:04;99917.73;;;20.62;73.71
80934;BME280;70392;51.144;17.050;2023-07-20T11:52:23;99934.08;;;20.79;73.21
80934;BME280;70392;51.144;17.050;2023-07-20T11:54:40;99948.09;;;20.74;70.08
80934;BME280;70392;51.144;17.050;2023-07-20T11:57:03;99935.17;;;20.56;70.74
80934;BME280;70392;51.144;17.050;2023-07-20T11:59:20;99934.78;;;20.57;70.07
80934;BME280;70392;51.144;17.050;2023-07-20T12:01:37;99948.35;;;20.63;70.11
80934;BME280;70392;51.144;17.050;2023-07-20T12:03:56;99947.52;;;20.95;70.54
80934;BME280;70392;51.144;17.050;2023-07-20T12:06:14;99946.41;;;21.06;69.02
80934;BME280;70392;51.144;17.050;2023-07-20T12:08:31;99948.62;;;21.41;70.43
80934;BME280;70392;51.144;17.050;2023-07-20T12:10:48;99948.91;;;21.41;67.90
80934;BME280;70392;51.144;17.050;2023-07-20T12:13:36;99953.98;;;21.35;67.23
80934;BME280;70392;51.144;17.050;2023-07-20T12:15:54;99945.91;;;21.52;68.00
80934;BME280;70392;51.144;17.050;2023-07-20T12:18:10;99945.83;;;21.71;66.93
80934;BME280;70392;51.144;17.050;2023-07-20T12:20:34;99946.11;;;21.95;64.81
80934;BME280;70392;51.144;17.050;2023-07-20T12:22:52;99942.34;;;22.03;63.61
80934;BME280;70392;51.144;17.050;2023-07-20T12:25:08;99941.66;;;22.19;62.86
80934;BME280;70392;51.144;17.050;2023-07-20T12:27:44;99938.63;;;22.18;63.51
80934;BME280;70392;51.144;17.050;2023-07-20T12:30:01;99938.14;;;22.44;61.96
80934;BME280;70392;51.144;17.050;2023-07-20T12:32:19;99937.94;;;22.89;61.04
80934;BME280;70392;51.144;17.050;2023-07-20T12:34:43;99933.95;;;23.59;58.73
80934;BME280;70392;51.144;17.050;2023-07-20T12:37:03;99932.27;;;24.38;55.20
80934;BME280;70392;51.144;17.050;2023-07-20T12:39:23;99932.57;;;24.31;53.81
80934;BME280;70392;51.144;17.050;2023-07-20T12:41:40;99942.48;;;23.46;54.73
80934;BME280;70392;51.144;17.050;2023-07-20T12:43:57;99947.63;;;23.26;56.83
80934;BME280;70392;51.144;17.050;2023-07-20T12:46:14;99939.94;;;23.02;54.76
80934;BME280;70392;51.144;17.050;2023-07-20T12:48:31;99942.98;;;23.16;57.34
80934;BME280;70392;51.144;17.050;2023-07-20T12:50:48;99926.95;;;23.53;56.89
80934;BME280;70392;51.144;17.050;2023-07-20T12:53:04;99932.52;;;23.81;57.25
80934;BME280;70392;51.144;17.050;2023-07-20T12:55:23;99933.67;;;23.82;56.48
80934;BME280;70392;51.144;17.050;2023-07-20T12:57:41;99926.86;;;23.79;56.97
80934;BME280;70392;51.144;17.050;2023-07-20T12:59:59;99928.34;;;24.28;55.46
80934;BME280;70392;51.144;17.050;2023-07-20T13:02:15;99927.58;;;25.03;54.83
80934;BME280;70392;51.144;17.050;2023-07-20T13:04:34;99934.82;;;25.50;51.46
80934;BME280;70392;51.144;17.050;2023-07-20T13:06:51;99929.39;;;25.64;49.94
80934;BME280;70392;51.144;17.050;2023-07-20T13:09:16;99928.14;;;26.21;48.08
80934;BME280;70392;51.144;17.050;2023-07-20T13:11:35;99934.95;;;26.51;48.68
80934;BME280;70392;51.144;17.050;2023-07-20T13:13:51;99927.36;;;26.76;46.50
80934;BME280;70392;51.144;17.050;2023-07-20T13:16:15;99928.05;;;27.25;46.19
80934;BME280;70392;51.144;17.050;2023-07-20T13:18:33;99925.57;;;27.10;44.70
80934;BME280;70392;51.144;17.050;2023-07-20T13:20:50;99921.38;;;27.10;46.31
80934;BME280;70392;51.144;17.050;2023-07-20T13:23:08;99928.38;;;27.62;49.97
80934;BME280;70392;51.144;17.050;2023-07-20T13:25:25;99933.30;;;28.18;43.81
80934;BME280;70392;51.144;17.050;2023-07-20T13:27:42;99933.58;;;28.28;42.97
80934;BME280;70392;51.144;17.050;2023-07-20T13:30:13;99927.03;;;28.03;41.79
80934;BME280;70392;51.144;17.050;2023-07-20T13:32:33;99927.74;;;28.46;41.29
80934;BME280;70392;51.144;17.050;2023-07-20T13:34:51;99925.75;;;29.11;43.17
80934;BME280;70392;51.144;17.050;2023-07-20T13:37:08;99926.72;;;29.10;42.37
80934;BME280;70392;51.144;17.050;2023-07-20T13:39:42;99928.67;;;29.59;40.31
80934;BME280;70392;51.144;17.050;2023-07-20T13:41:58;99930.19;;;29.81;42.58
80934;BME280;70392;51.144;17.050;2023-07-20T13:44:20;99923.84;;;29.52;39.49
80934;BME280;70392;51.144;17.050;2023-07-20T13:46:41;99919.22;;;29.31;37.01
80934;BME280;70392;51.144;17.050;2023-07-20T13:48:58;99921.56;;;28.86;37.83
80934;BME280;70392;51.144;17.050;2023-07-20T13:51:18;99917.52;;;28.88;35.99
80934;BME280;70392;51.144;17.050;2023-07-20T13:53:34;99908.50;;;28.38;35.60
80934;BME280;70392;51.144;17.050;2023-07-20T13:55:58;99914.45;;;28.37;37.24
80934;BME280;70392;51.144;17.050;2023-07-20T13:58:15;99913.55;;;28.14;36.84
80934;BME280;70392;51.144;17.050;2023-07-20T14:00:35;99910.53;;;27.90;37.82
80934;BME280;70392;51.144;17.050;2023-07-20T14:02:52;99911.53;;;28.19;37.95
80934;BME280;70392;51.144;17.050;2023-07-20T14:05:09;99903.81;;;28.65;40.01
80934;BME280;70392;51.144;17.050;2023-07-20T14:07:31;99897.46;;;28.96;35.79
80934;BME280;70392;51.144;17.050;2023-07-20T14:09:50;99898.53;;;28.91;40.59
80934;BME280;70392;51.144;17.050;2023-07-20T14:12:11;99898.62;;;29.07;36.02
80934;BME280;70392;51.144;17.050;2023-07-20T14:14:30;99912.07;;;29.09;36.49
80934;BME280;70392;51.144;17.050;2023-07-20T14:16:46;99920.99;;;29.07;35.86
80934;BME280;70392;51.144;17.050;2023-07-20T14:19:10;99904.14;;;29.24;36.88
80934;BME280;70392;51.144;17.050;2023-07-20T14:21:27;99908.20;;;29.38;37.64
80934;BME280;70392;51.144;17.050;2023-07-20T14:23:46;99901.58;;;29.72;36.05
80934;BME280;70392;51.144;17.050;2023-07-20T14:26:09;99897.94;;;29.97;36.88
80934;BME280;70392;51.144;17.050;2023-07-20T14:28:33;99888.05;;;30.16;34.18
80934;BME280;70392;51.144;17.050;2023-07-20T14:30:49;99892.36;;;30.16;33.99
80934;BME280;70392;51.144;17.050;2023-07-20T14:33:10;99894.66;;;30.02;34.80
80934;BME280;70392;51.144;17.050;2023-07-20T14:35:29;99894.48;;;29.99;34.35
80934;BME280;70392;51.144;17.050;2023-07-20T14:37:47;99889.88;;;30.28;34.64
80934;BME280;70392;51.144;17.050;2023-07-20T14:40:05;99885.23;;;30.21;34.16
80934;BME280;70392;51.144;17.050;2023-07-20T14:42:22;99883.52;;;29.97;33.45
80934;BME280;70392;51.144;17.050;2023-07-20T14:44:38;99880.36;;;29.66;34.13
80934;BME280;70392;51.144;17.050;2023-07-20T14:46:57;99883.48;;;29.26;35.50
80934;BME280;70392;51.144;17.050;2023-07-20T14:49:13;99890.25;;;28.49;35.43
80934;BME280;70392;51.144;17.050;2023-07-20T14:51:33;99894.60;;;27.43;36.71
80934;BME280;70392;51.144;17.050;2023-07-20T14:53:52;99887.81;;;26.52;39.85
80934;BME280;70392;51.144;17.050;2023-07-20T14:56:10;99890.30;;;26.41;44.05
80934;BME280;70392;51.144;17.050;2023-07-20T14:58:26;99895.47;;;26.02;44.50
80934;BME280;70392;51.144;17.050;2023-07-20T15:00:50;99895.95;;;25.69;47.02
80934;BME280;70392;51.144;17.050;2023-07-20T15:03:09;99891.50;;;25.53;48.44
80934;BME280;70392;51.144;17.050;2023-07-20T15:05:36;99909.55;;;25.27;49.17
80934;BME280;70392;51.144;17.050;2023-07-20T15:07:54;99901.49;;;25.62;47.47
80934;BME280;70392;51.144;17.050;2023-07-20T15:10:30;99895.49;;;25.64;47.70
80934;BME280;70392;51.144;17.050;2023-07-20T15:12:47;99911.04;;;25.32;47.10
80934;BME280;70392;51.144;17.050;2023-07-20T15:15:13;99895.20;;;25.24;48.51
80934;BME280;70392;51.144;17.050;2023-07-20T15:17:29;99887.96;;;26.21;43.64
80934;BME280;70392;51.144;17.050;2023-07-20T15:19:48;99890.95;;;26.63;45.97
80934;BME280;70392;51.144;17.050;2023-07-20T15:22:06;99902.91;;;26.57;42.39
80934;BME280;70392;51.144;17.050;2023-07-20T15:24:23;99896.73;;;26.71;43.70
80934;BME280;70392;51.144;17.050;2023-07-20T15:26:41;99903.71;;;27.16;41.18
80934;BME280;70392;51.144;17.050;2023-07-20T15:28:59;99895.75;;;28.00;39.20
80934;BME280;70392;51.144;17.050;2023-07-20T15:31:15;99893.87;;;28.83;37.44
80934;BME280;70392;51.144;17.050;2023-07-20T15:33:32;99893.63;;;28.60;38.24
80934;BME280;70392;51.144;17.050;2023-07-20T15:35:48;99891.95;;;28.60;38.83
80934;BME280;70392;51.144;17.050;2023-07-20T15:38:04;99895.05;;;29.38;35.41
80934;BME280;70392;51.144;17.050;2023-07-20T15:40:20;99887.21;;;29.71;34.18
80934;BME280;70392;51.144;17.050;2023-07-20T15:42:40;99884.02;;;30.15;35.20